Time;durP1;ratioP1;P1;durP2;ratioP2;P2;SDS_P1;SDS_P2;PMS_P1;PMS_P2;Temp;Humidity;BMP_temperature;BMP_pressure;BME280_temperature;BME280_humidity;BME280_pressure;Samples;Min_cycle;Max_cycle;Signal;HPM_P1;HPM_P2
2021/04/29 00:01:45;;;;;;;3.63;1.90;;;24.00;36.10;;;;;;5082284;28;20450;-59
2021/04/29 00:04:11;;;;;;;3.42;1.88;;;24.00;36.10;;;;;;5087611;28;20482;-59
2021/04/29 00:06:37;;;;;;;4.13;1.90;;;24.00;36.10;;;;;;5088008;28;20577;-62
2021/04/29 00:09:05;;;;;;;3.47;1.83;;;23.90;36.10;;;;;;5077737;28;20039;-60
2021/04/29 00:11:31;;;;;;;3.50;1.80;;;24.00;36.10;;;;;;5084381;28;20222;-59
2021/04/29 00:13:57;;;;;;;3.92;1.83;;;23.90;36.10;;;;;;5077152;28;20039;-60
2021/04/29 00:16:23;;;;;;;4.88;1.90;;;23.90;36.10;;;;;;5081999;28;20025;-60
2021/04/29 00:18:48;;;;;;;3.88;2.13;;;23.90;36.10;;;;;;5087060;28;20372;-59
2021/04/29 00:21:14;;;;;;;3.17;1.70;;;23.90;36.10;;;;;;5083963;28;20020;-60
2021/04/29 00:23:40;;;;;;;3.53;2.00;;;23.90;36.10;;;;;;5087905;28;20040;-60
2021/04/29 00:26:06;;;;;;;4.10;2.03;;;23.90;36.20;;;;;;5084120;28;20036;-60
2021/04/29 00:28:31;;;;;;;3.67;1.90;;;23.90;36.10;;;;;;5088740;28;20043;-61
2021/04/29 00:30:57;;;;;;;3.85;2.10;;;23.90;36.10;;;;;;5090658;28;20123;-59
2021/04/29 00:33:23;;;;;;;3.33;1.67;;;23.90;36.20;;;;;;5085426;28;20012;-61
2021/04/29 00:35:48;;;;;;;2.90;1.67;;;23.90;36.20;;;;;;5085473;28;20089;-59
2021/04/29 00:38:16;;;;;;;4.63;1.95;;;23.90;36.20;;;;;;5086758;28;20063;-60
2021/04/29 00:40:41;;;;;;;3.90;1.90;;;23.90;36.20;;;;;;5076223;28;20115;-60
2021/04/29 00:43:10;;;;;;;3.60;2.00;;;23.80;36.20;;;;;;5077924;28;20518;-59
2021/04/29 00:45:36;;;;;;;3.25;1.88;;;23.80;36.10;;;;;;5086474;28;20036;-60
2021/04/29 00:48:01;;;;;;;3.58;2.00;;;23.80;36.20;;;;;;5084470;28;20074;-59
2021/04/29 00:50:27;;;;;;;3.25;1.70;;;23.80;36.20;;;;;;5087374;28;20024;-60
2021/04/29 00:52:53;;;;;;;3.05;1.70;;;23.80;36.20;;;;;;5086468;28;20139;-60
2021/04/29 00:55:19;;;;;;;3.20;1.70;;;23.80;36.20;;;;;;5085537;28;20525;-59
2021/04/29 00:57:45;;;;;;;3.25;1.80;;;23.80;36.20;;;;;;5086212;28;20024;-60
2021/04/29 01:00:11;;;;;;;3.38;1.80;;;23.80;36.20;;;;;;5085667;28;20059;-60
2021/04/29 01:02:42;;;;;;;2.75;1.77;;;23.80;36.20;;;;;;5086898;28;20089;-60
2021/04/29 01:05:18;;;;;;;2.78;1.40;;;23.70;36.20;;;;;;5077161;28;20139;-62
2021/04/29 01:07:53;;;;;;;2.85;1.58;;;23.80;36.30;;;;;;5086344;28;20050;-60
2021/04/29 01:10:28;;;;;;;2.67;1.65;;;23.70;36.20;;;;;;5084905;28;20023;-60
2021/04/29 01:13:02;;;;;;;3.00;1.80;;;23.70;36.20;;;;;;5085492;28;20082;-60
2021/04/29 01:15:28;;;;;;;2.90;1.60;;;23.80;36.30;;;;;;5085561;28;20508;-60
2021/04/29 01:17:55;;;;;;;2.92;1.80;;;23.70;36.20;;;;;;5086771;28;20032;-60
2021/04/29 01:20:48;;;;;;;3.38;1.58;;;23.70;36.30;;;;;;5082020;28;20143;-60
2021/04/29 01:23:32;;;;;;;2.88;1.73;;;23.70;36.30;;;;;;5083925;28;20027;-60
2021/04/29 01:26:10;;;;;;;3.03;1.80;;;23.70;36.30;;;;;;5074889;28;20093;-59
2021/04/29 01:28:37;;;;;;;3.28;1.70;;;23.70;36.30;;;;;;5067011;28;20142;-59
2021/04/29 01:31:03;;;;;;;3.13;1.60;;;23.70;36.30;;;;;;5084426;28;20082;-60
2021/04/29 01:33:29;;;;;;;3.40;1.77;;;23.70;36.30;;;;;;5087099;28;20393;-60
2021/04/29 01:35:55;;;;;;;3.28;1.80;;;23.70;36.30;;;;;;5085895;28;20716;-60
2021/04/29 01:38:21;;;;;;;3.65;1.80;;;23.60;36.30;;;;;;5086805;28;20024;-60
2021/04/29 01:40:47;;;;;;;3.35;1.70;;;23.60;36.30;;;;;;5082643;28;20108;-59
2021/04/29 01:43:13;;;;;;;1.95;1.40;;;23.60;36.30;;;;;;5076827;28;20127;-62
2021/04/29 01:45:41;;;;;;;2.58;1.42;;;23.60;36.30;;;;;;5086366;28;20455;-60
2021/04/29 01:48:08;;;;;;;3.63;1.60;;;23.60;36.30;;;;;;5086960;28;20032;-61
2021/04/29 01:50:35;;;;;;;2.53;1.42;;;23.60;36.30;;;;;;5084912;28;20290;-60
2021/04/29 01:53:00;;;;;;;3.03;1.60;;;23.60;36.30;;;;;;5078937;28;20024;-60
2021/04/29 01:55:26;;;;;;;2.35;1.50;;;23.60;36.30;;;;;;5085846;28;20065;-60
2021/04/29 01:57:53;;;;;;;2.90;1.60;;;23.60;36.40;;;;;;5083211;28;20035;-60
2021/04/29 02:00:19;;;;;;;2.72;1.60;;;23.60;36.40;;;;;;5083585;28;20390;-60
2021/04/29 02:02:45;;;;;;;3.15;1.67;;;23.60;36.40;;;;;;5078244;28;20112;-60
2021/04/29 02:05:11;;;;;;;2.42;1.60;;;23.60;36.40;;;;;;5084147;28;20557;-60
2021/04/29 02:07:37;;;;;;;2.75;1.55;;;23.60;36.40;;;;;;5084993;28;20027;-60
2021/04/29 02:10:03;;;;;;;2.72;1.42;;;23.60;36.40;;;;;;5083218;28;20028;-60
2021/04/29 02:12:33;;;;;;;2.83;1.60;;;23.50;36.30;;;;;;5085127;28;20122;-60
2021/04/29 02:15:01;;;;;;;2.90;1.70;;;23.50;36.30;;;;;;5083802;28;20507;-60
2021/04/29 02:17:39;;;;;;;2.92;1.50;;;23.50;36.40;;;;;;5084829;28;20059;-60
2021/04/29 02:20:06;;;;;;;3.08;1.77;;;23.50;36.40;;;;;;5086733;28;20032;-60
2021/04/29 02:22:34;;;;;;;2.72;1.75;;;23.50;36.40;;;;;;5086906;28;20104;-60
2021/04/29 02:25:00;;;;;;;2.60;1.60;;;23.50;36.90;;;;;;5084304;28;20031;-60
2021/04/29 02:27:26;;;;;;;2.88;1.50;;;23.50;36.40;;;;;;5084954;28;20032;-60
2021/04/29 02:29:52;;;;;;;2.78;1.50;;;23.50;36.40;;;;;;5086464;28;20032;-60
2021/04/29 02:32:18;;;;;;;2.42;1.35;;;23.50;36.40;;;;;;5085741;28;20040;-60
2021/04/29 02:34:45;;;;;;;3.03;1.60;;;23.50;36.40;;;;;;5082902;28;20410;-59
2021/04/29 02:37:15;;;;;;;3.10;1.65;;;23.50;36.40;;;;;;5083552;28;20166;-59
2021/04/29 02:39:41;;;;;;;2.92;1.60;;;23.50;36.40;;;;;;5078842;28;20242;-60
2021/04/29 02:42:08;;;;;;;2.88;1.70;;;23.40;36.40;;;;;;5081570;28;20103;-60
2021/04/29 02:44:35;;;;;;;2.42;1.55;;;23.40;36.40;;;;;;5085696;28;20070;-60
2021/04/29 02:47:02;;;;;;;2.50;1.50;;;23.50;36.50;;;;;;5084383;28;20447;-60
2021/04/29 02:49:28;;;;;;;2.58;1.50;;;23.40;36.40;;;;;;5086808;28;20074;-60
2021/04/29 02:51:54;;;;;;;3.17;1.65;;;23.40;36.40;;;;;;5075684;28;20408;-60
2021/04/29 02:54:21;;;;;;;2.50;1.50;;;23.40;36.40;;;;;;5075438;28;20480;-60
2021/04/29 02:56:47;;;;;;;3.17;1.60;;;23.40;36.40;;;;;;5084128;28;20132;-60
2021/04/29 02:59:13;;;;;;;2.38;1.42;;;23.40;36.40;;;;;;5079652;28;20059;-59
2021/04/29 03:01:42;;;;;;;2.60;1.58;;;23.40;36.40;;;;;;5083906;28;20127;-59
2021/04/29 03:04:08;;;;;;;2.72;1.60;;;23.40;36.40;;;;;;5085662;28;20458;-59
2021/04/29 03:06:35;;;;;;;2.28;1.20;;;23.40;36.50;;;;;;5080251;28;20032;-60
2021/04/29 03:09:01;;;;;;;2.70;1.40;;;23.40;36.40;;;;;;5079200;28;20080;-59
2021/04/29 03:11:28;;;;;;;1.75;1.20;;;23.40;36.50;;;;;;5078671;28;20047;-60
2021/04/29 03:13:53;;;;;;;2.85;1.50;;;23.40;36.50;;;;;;5085656;28;20138;-60
2021/04/29 03:16:19;;;;;;;2.85;1.52;;;23.40;36.50;;;;;;5084368;28;20107;-59
2021/04/29 03:18:44;;;;;;;2.47;1.42;;;23.40;36.50;;;;;;5083451;28;22212;-60
2021/04/29 03:21:11;;;;;;;2.13;1.30;;;23.30;36.50;;;;;;5084617;28;20028;-60
2021/04/29 03:23:37;;;;;;;2.28;1.40;;;23.40;36.50;;;;;;5086011;28;20029;-60
2021/04/29 03:26:03;;;;;;;2.58;1.40;;;23.30;36.50;;;;;;5083116;28;20406;-60
2021/04/29 03:28:29;;;;;;;2.50;1.42;;;23.30;36.50;;;;;;5089916;28;20042;-60
2021/04/29 03:30:55;;;;;;;2.55;1.50;;;23.30;36.50;;;;;;5092083;28;20031;-59
2021/04/29 03:33:21;;;;;;;2.55;1.45;;;23.30;36.50;;;;;;5092170;28;20082;-60
2021/04/29 03:35:46;;;;;;;2.20;1.40;;;23.30;36.50;;;;;;5088064;28;20024;-60
2021/04/29 03:38:12;;;;;;;3.55;1.58;;;23.30;36.50;;;;;;5081770;28;20423;-60
2021/04/29 03:40:38;;;;;;;2.92;1.50;;;23.30;36.50;;;;;;5086276;28;20390;-59
2021/04/29 03:43:05;;;;;;;1.92;1.20;;;23.30;36.50;;;;;;5086326;28;20031;-59
2021/04/29 03:45:31;;;;;;;2.20;1.33;;;23.30;36.50;;;;;;5088957;28;20096;-59
2021/04/29 03:47:57;;;;;;;2.58;1.50;;;23.30;36.50;;;;;;5086298;28;20142;-59
2021/04/29 03:50:23;;;;;;;2.72;1.23;;;23.30;36.50;;;;;;5083166;28;20144;-57
2021/04/29 03:52:48;;;;;;;2.20;1.30;;;23.30;36.50;;;;;;5088248;28;20099;-60
2021/04/29 03:55:14;;;;;;;1.73;1.23;;;23.30;36.50;;;;;;5088410;28;20107;-58
2021/04/29 03:57:40;;;;;;;1.95;1.13;;;23.20;36.50;;;;;;5085212;28;20134;-58
2021/04/29 04:00:07;;;;;;;2.28;1.15;;;23.30;36.60;;;;;;5085594;28;20042;-59
2021/04/29 04:02:32;;;;;;;1.85;1.30;;;23.30;36.60;;;;;;5082635;28;20111;-57
2021/04/29 04:04:58;;;;;;;2.30;1.45;;;23.30;36.60;;;;;;5088906;28;20178;-58
2021/04/29 04:07:23;;;;;;;1.92;1.10;;;23.30;36.60;;;;;;5086013;28;20036;-58
2021/04/29 04:09:49;;;;;;;2.40;1.40;;;23.30;36.60;;;;;;5087087;28;20525;-51
2021/04/29 04:12:15;;;;;;;2.08;1.25;;;23.30;36.60;;;;;;5084376;28;20030;-59
2021/04/29 04:14:40;;;;;;;1.92;1.25;;;23.20;36.50;;;;;;5088163;28;20099;-56
2021/04/29 04:17:06;;;;;;;1.85;1.27;;;23.20;36.60;;;;;;5086705;28;20594;-59
2021/04/29 04:19:32;;;;;;;1.70;1.20;;;23.20;36.60;;;;;;5087038;28;20028;-58
2021/04/29 04:21:57;;;;;;;2.05;1.33;;;23.20;36.60;;;;;;5087516;28;20429;-57
2021/04/29 04:24:23;;;;;;;2.75;1.38;;;23.20;37.20;;;;;;5086597;28;20465;-58
2021/04/29 04:26:49;;;;;;;1.60;1.20;;;23.20;36.70;;;;;;5085023;28;20072;-58
2021/04/29 04:29:15;;;;;;;1.90;1.35;;;23.20;36.60;;;;;;5087034;28;20070;-57
2021/04/29 04:31:40;;;;;;;1.52;1.10;;;23.20;36.60;;;;;;5082131;28;20105;-55
2021/04/29 04:34:06;;;;;;;2.95;1.30;;;23.20;36.70;;;;;;5085041;28;20028;-55
2021/04/29 04:36:31;;;;;;;1.70;1.10;;;23.20;36.60;;;;;;5079589;28;20033;-54
2021/04/29 04:38:57;;;;;;;1.98;1.20;;;23.20;36.70;;;;;;5080226;28;20036;-57
2021/04/29 04:41:23;;;;;;;1.77;1.20;;;23.20;36.70;;;;;;5087363;28;20105;-59
2021/04/29 04:43:48;;;;;;;2.85;1.30;;;23.20;36.70;;;;;;5087065;28;20055;-54
2021/04/29 04:46:14;;;;;;;1.83;1.27;;;23.20;36.70;;;;;;5088246;28;20039;-56
2021/04/29 04:48:39;;;;;;;2.50;1.67;;;23.10;36.60;;;;;;5087206;28;20462;-57
2021/04/29 04:51:05;;;;;;;2.25;1.25;;;23.10;36.60;;;;;;5087548;28;20028;-58
2021/04/29 04:53:31;;;;;;;1.75;1.13;;;23.10;36.60;;;;;;5087073;28;20031;-56
2021/04/29 04:55:56;;;;;;;1.77;1.17;;;23.10;36.60;;;;;;5086601;28;20051;-59
2021/04/29 04:58:22;;;;;;;1.95;1.27;;;23.10;36.60;;;;;;5086928;28;20042;-55
2021/04/29 05:00:49;;;;;;;2.20;1.33;;;23.10;36.70;;;;;;5086142;28;20040;-57
2021/04/29 05:03:16;;;;;;;1.65;1.10;;;23.10;36.70;;;;;;5085290;28;20093;-58
2021/04/29 05:05:42;;;;;;;1.92;1.20;;;23.10;36.70;;;;;;5082389;28;21014;-55
2021/04/29 05:08:09;;;;;;;1.60;1.00;;;23.10;36.70;;;;;;5086220;28;20030;-54
2021/04/29 05:10:35;;;;;;;2.03;1.10;;;23.10;36.70;;;;;;5087950;28;20028;-55
2021/04/29 05:13:02;;;;;;;2.28;1.10;;;23.10;36.70;;;;;;5086617;28;20081;-54
2021/04/29 05:15:29;;;;;;;2.00;1.15;;;23.10;36.70;;;;;;5084793;28;20059;-56
2021/04/29 05:17:55;;;;;;;1.30;1.00;;;23.10;36.80;;;;;;5085681;28;20024;-60
2021/04/29 05:20:20;;;;;;;1.67;1.17;;;23.10;36.70;;;;;;5069907;28;20456;-56
2021/04/29 05:22:47;;;;;;;2.05;1.10;;;23.10;36.80;;;;;;5080351;28;20020;-55
2021/04/29 05:25:13;;;;;;;2.05;1.08;;;23.10;36.80;;;;;;5082594;28;20054;-57
2021/04/29 05:27:38;;;;;;;2.35;1.17;;;23.10;36.80;;;;;;5070229;28;20036;-59
2021/04/29 05:30:05;;;;;;;1.83;1.15;;;23.10;36.80;;;;;;5084777;28;20032;-58
2021/04/29 05:32:31;;;;;;;1.63;1.02;;;23.10;36.80;;;;;;5051145;28;20408;-55
2021/04/29 05:34:57;;;;;;;1.50;1.00;;;23.00;36.80;;;;;;5058626;28;20233;-57
2021/04/29 05:37:24;;;;;;;2.38;1.35;;;23.10;36.80;;;;;;5062632;28;20067;-50
2021/04/29 05:39:50;;;;;;;2.47;1.20;;;23.00;36.90;;;;;;5053351;28;20529;-60
2021/04/29 05:42:15;;;;;;;1.58;1.00;;;23.00;36.80;;;;;;5055140;28;20052;-57
2021/04/29 05:44:41;;;;;;;2.00;1.02;;;23.00;36.90;;;;;;5063678;28;20110;-55
2021/04/29 05:47:07;;;;;;;1.75;1.08;;;23.00;36.90;;;;;;5065802;28;20115;-56
2021/04/29 05:49:32;;;;;;;1.55;1.02;;;23.00;36.90;;;;;;5065090;28;20033;-55
2021/04/29 05:51:58;;;;;;;1.65;1.00;;;23.00;36.90;;;;;;5066322;28;20028;-54
2021/04/29 05:54:24;;;;;;;1.30;0.93;;;23.00;36.90;;;;;;5065122;28;20040;-57
2021/04/29 05:56:49;;;;;;;2.92;1.20;;;23.00;37.00;;;;;;5065950;28;20463;-53
2021/04/29 05:59:15;;;;;;;1.52;1.00;;;23.00;37.00;;;;;;5065436;28;20029;-55
2021/04/29 06:01:40;;;;;;;1.65;1.00;;;23.00;37.00;;;;;;5062825;28;20535;-57
2021/04/29 06:04:06;;;;;;;1.67;0.98;;;23.00;37.20;;;;;;5065970;28;20118;-55
2021/04/29 06:06:32;;;;;;;1.73;0.80;;;23.00;37.60;;;;;;5072672;28;20036;-58
2021/04/29 06:08:58;;;;;;;1.45;0.80;;;23.00;37.50;;;;;;5062599;28;20032;-57
2021/04/29 06:11:23;;;;;;;1.73;0.88;;;23.10;37.60;;;;;;5061394;28;20040;-55
2021/04/29 06:13:49;;;;;;;1.75;0.90;;;23.10;37.50;;;;;;5074035;28;20133;-58
2021/04/29 06:16:15;;;;;;;1.50;0.90;;;23.10;37.80;;;;;;5067244;28;20112;-55
2021/04/29 06:18:41;;;;;;;2.22;1.00;;;23.10;37.80;;;;;;5071636;28;20028;-57
2021/04/29 06:21:07;;;;;;;1.00;0.80;;;23.20;37.70;;;;;;5063619;28;20033;-57
2021/04/29 06:23:33;;;;;;;1.17;0.80;;;23.20;37.60;;;;;;5073255;28;20090;-54
2021/04/29 06:26:00;;;;;;;1.27;0.85;;;23.20;37.50;;;;;;5058374;28;20463;-59
2021/04/29 06:28:27;;;;;;;1.75;0.80;;;23.20;37.40;;;;;;5071651;28;20032;-55
2021/04/29 06:30:54;;;;;;;1.38;0.90;;;23.30;37.30;;;;;;5077844;28;20036;-55
2021/04/29 06:33:22;;;;;;;1.40;0.80;;;23.30;37.40;;;;;;5066291;28;20040;-57
2021/04/29 06:35:47;;;;;;;1.58;0.90;;;23.30;37.20;;;;;;5075929;28;20029;-55
2021/04/29 06:38:13;;;;;;;1.02;0.80;;;23.30;37.20;;;;;;5069249;28;20056;-57
2021/04/29 06:40:39;;;;;;;0.60;0.60;;;23.30;37.10;;;;;;5070573;28;20414;-54
2021/04/29 06:43:04;;;;;;;1.42;0.90;;;23.30;37.20;;;;;;5074168;28;20397;-58
2021/04/29 06:45:30;;;;;;;1.88;0.90;;;23.30;37.10;;;;;;5069277;28;20067;-57
2021/04/29 06:47:55;;;;;;;1.75;0.70;;;23.40;37.10;;;;;;5071812;28;20621;-57
2021/04/29 06:50:21;;;;;;;1.23;0.70;;;23.40;37.10;;;;;;5074086;28;20024;-56
2021/04/29 06:52:46;;;;;;;1.00;0.80;;;23.40;37.00;;;;;;5070241;28;20073;-58
2021/04/29 06:55:12;;;;;;;1.35;0.73;;;23.40;37.00;;;;;;5074459;28;20051;-55
2021/04/29 06:57:39;;;;;;;0.90;0.70;;;23.40;37.10;;;;;;5069609;28;20101;-57
2021/04/29 07:00:05;;;;;;;1.08;0.70;;;23.50;37.00;;;;;;5077271;28;20119;-56
2021/04/29 07:02:31;;;;;;;2.00;0.75;;;23.50;36.90;;;;;;5053013;28;20096;-54
2021/04/29 07:04:57;;;;;;;1.20;0.70;;;23.50;36.90;;;;;;5071376;28;20554;-57
2021/04/29 07:07:22;;;;;;;0.88;0.70;;;23.60;36.90;;;;;;5062890;28;20032;-52
2021/04/29 07:09:48;;;;;;;1.20;0.77;;;23.60;36.90;;;;;;5074635;28;20131;-58
2021/04/29 07:12:14;;;;;;;2.45;0.63;;;23.60;36.70;;;;;;5069904;28;20048;-56
2021/04/29 07:14:40;;;;;;;1.83;0.82;;;23.60;36.80;;;;;;5069819;28;20115;-55
2021/04/29 07:17:05;;;;;;;1.42;0.70;;;23.60;36.80;;;;;;5061133;28;20031;-55
2021/04/29 07:19:31;;;;;;;0.75;0.65;;;23.70;36.70;;;;;;5078048;28;20823;-54
2021/04/29 07:21:57;;;;;;;2.33;0.80;;;23.70;36.70;;;;;;5089696;28;20024;-55
2021/04/29 07:24:22;;;;;;;1.58;0.60;;;23.70;36.70;;;;;;5089540;28;20024;-59
2021/04/29 07:26:48;;;;;;;1.35;0.70;;;23.70;36.80;;;;;;5077818;28;20066;-55
2021/04/29 07:29:14;;;;;;;0.82;0.60;;;23.70;36.60;;;;;;5069374;28;20107;-57
2021/04/29 07:31:39;;;;;;;0.80;0.60;;;23.70;36.50;;;;;;5082359;28;20081;-58
2021/04/29 07:34:05;;;;;;;1.13;0.80;;;23.80;36.50;;;;;;5088896;28;20028;-58
2021/04/29 07:36:31;;;;;;;0.70;0.60;;;23.80;36.50;;;;;;5089489;28;20393;-54
2021/04/29 07:38:58;;;;;;;1.15;0.80;;;23.80;36.40;;;;;;5084119;28;20028;-59
2021/04/29 07:41:26;;;;;;;1.70;0.88;;;23.80;36.60;;;;;;5069566;28;20103;-59
2021/04/29 07:43:51;;;;;;;0.70;0.63;;;23.80;36.40;;;;;;5078520;28;20068;-59
2021/04/29 07:46:17;;;;;;;1.58;0.70;;;23.90;36.30;;;;;;5078768;28;20078;-58
2021/04/29 07:48:43;;;;;;;1.65;0.82;;;23.80;36.30;;;;;;5088705;28;20510;-57
2021/04/29 07:51:08;;;;;;;1.83;0.73;;;23.90;36.30;;;;;;5088639;28;20114;-55
2021/04/29 07:53:34;;;;;;;0.95;0.70;;;23.90;36.30;;;;;;5088288;28;20032;-55
2021/04/29 07:56:00;;;;;;;1.00;0.70;;;23.90;36.20;;;;;;5088042;28;20039;-59
2021/04/29 07:58:25;;;;;;;1.17;0.70;;;23.90;36.30;;;;;;5087873;28;20395;-57
2021/04/29 08:00:52;;;;;;;1.30;0.73;;;23.90;36.20;;;;;;5086781;28;20036;-55
2021/04/29 08:03:17;;;;;;;0.90;0.60;;;23.90;36.20;;;;;;5088229;28;20080;-59
2021/04/29 08:05:43;;;;;;;1.52;0.80;;;23.90;36.20;;;;;;5089234;28;20040;-58
2021/04/29 08:08:09;;;;;;;1.38;0.70;;;23.90;36.10;;;;;;5084520;28;20481;-56
2021/04/29 08:10:35;;;;;;;1.05;0.80;;;23.90;36.10;;;;;;5086429;28;20421;-56
2021/04/29 08:13:01;;;;;;;1.05;0.70;;;24.00;36.10;;;;;;5087678;28;20177;-58
2021/04/29 08:15:26;;;;;;;0.82;0.68;;;24.00;36.10;;;;;;5087978;28;20036;-58
2021/04/29 08:17:52;;;;;;;1.25;0.68;;;24.00;36.10;;;;;;5082432;28;20033;-58
2021/04/29 08:20:18;;;;;;;2.55;0.80;;;24.00;36.00;;;;;;5088216;28;20028;-56
2021/04/29 08:22:44;;;;;;;2.42;0.90;;;24.00;36.10;;;;;;5087276;28;20134;-59
2021/04/29 08:25:10;;;;;;;1.80;0.65;;;24.10;36.10;;;;;;5086941;28;20106;-55
2021/04/29 08:27:36;;;;;;;0.85;0.65;;;24.10;36.10;;;;;;5083547;28;20031;-58
2021/04/29 08:30:03;;;;;;;0.70;0.60;;;24.10;36.00;;;;;;5087652;28;20054;-58
2021/04/29 08:32:28;;;;;;;1.58;0.77;;;24.10;36.00;;;;;;5069272;28;20065;-57
2021/04/29 08:34:54;;;;;;;1.02;0.70;;;24.10;36.00;;;;;;5067622;28;20518;-58
2021/04/29 08:37:20;;;;;;;1.65;0.60;;;24.10;36.00;;;;;;5067673;28;20024;-53
2021/04/29 08:39:46;;;;;;;0.93;0.70;;;24.10;36.00;;;;;;5068143;28;20064;-56
2021/04/29 08:42:13;;;;;;;1.58;0.70;;;24.10;35.90;;;;;;5067279;28;20150;-58
2021/04/29 08:44:39;;;;;;;0.80;0.70;;;24.10;36.00;;;;;;5065207;28;20051;-51
2021/04/29 08:47:06;;;;;;;1.00;0.80;;;24.10;35.90;;;;;;5051352;28;20118;-53
2021/04/29 08:49:32;;;;;;;1.58;0.70;;;24.10;35.90;;;;;;5067709;28;20215;-56
2021/04/29 08:51:58;;;;;;;1.13;0.75;;;24.10;35.90;;;;;;5067936;28;20119;-54
2021/04/29 08:54:24;;;;;;;0.95;0.68;;;24.20;35.90;;;;;;5065986;28;20024;-53
2021/04/29 08:56:52;;;;;;;1.05;0.57;;;24.20;35.90;;;;;;5065023;28;20051;-58
2021/04/29 08:59:18;;;;;;;1.27;0.70;;;24.20;35.90;;;;;;5066368;28;20051;-55
2021/04/29 09:01:45;;;;;;;0.70;0.60;;;24.20;35.90;;;;;;5062856;28;20471;-57
2021/04/29 09:04:13;;;;;;;1.10;0.70;;;24.20;35.90;;;;;;5066574;28;20036;-53
2021/04/29 09:06:39;;;;;;;1.10;0.70;;;24.20;36.00;;;;;;5058777;28;20033;-53
2021/04/29 09:09:05;;;;;;;1.15;0.70;;;24.30;36.00;;;;;;5062609;28;20120;-52
2021/04/29 09:11:31;;;;;;;0.98;0.65;;;24.20;35.90;;;;;;5066135;28;20158;-57
2021/04/29 09:14:03;;;;;;;2.08;0.60;;;24.30;35.90;;;;;;5064004;28;20024;-58
2021/04/29 09:16:40;;;;;;;3.90;0.80;;;24.30;35.90;;;;;;5066061;28;20055;-50
2021/04/29 09:19:17;;;;;;;0.95;0.70;;;24.30;35.90;;;;;;5065829;28;20106;-51
2021/04/29 09:21:42;;;;;;;1.08;0.70;;;24.30;35.80;;;;;;5064272;28;20032;-58
2021/04/29 09:24:08;;;;;;;0.80;0.70;;;24.30;35.80;;;;;;5064859;28;20028;-56
2021/04/29 09:26:34;;;;;;;0.85;0.70;;;24.30;35.80;;;;;;5065928;28;20040;-50
2021/04/29 09:29:07;;;;;;;0.70;0.60;;;24.30;35.70;;;;;;5065992;28;20033;-55
2021/04/29 09:31:38;;;;;;;1.67;0.90;;;24.30;35.80;;;;;;5068834;28;20032;-59
2021/04/29 09:34:04;;;;;;;0.90;0.63;;;24.30;35.70;;;;;;5050490;28;20028;-56
2021/04/29 09:36:39;;;;;;;0.50;0.50;;;24.30;35.80;;;;;;5061871;28;20025;-53
2021/04/29 09:39:10;;;;;;;0.93;0.65;;;24.30;35.70;;;;;;5063348;28;20424;-56
2021/04/29 09:41:37;;;;;;;0.73;0.60;;;24.30;35.80;;;;;;5061632;28;20035;-55
2021/04/29 09:44:08;;;;;;;1.50;0.75;;;24.30;35.80;;;;;;5077700;28;20090;-59
2021/04/29 09:46:41;;;;;;;0.85;0.60;;;24.40;35.80;;;;;;5079888;28;20068;-58
2021/04/29 09:49:20;;;;;;;1.02;0.60;;;24.30;35.80;;;;;;5067829;28;20044;-50
2021/04/29 09:51:47;;;;;;;1.00;0.70;;;24.30;35.80;;;;;;5071992;28;20439;-52
2021/04/29 09:54:30;;;;;;;1.27;0.70;;;24.40;35.80;;;;;;5074314;28;20178;-56
2021/04/29 09:56:58;;;;;;;1.55;0.68;;;24.40;35.80;;;;;;5067162;28;20056;-53
2021/04/29 09:59:28;;;;;;;1.20;0.67;;;24.40;35.70;;;;;;5066562;28;20040;-55
2021/04/29 10:01:54;;;;;;;0.90;0.77;;;24.40;35.70;;;;;;5056178;28;20773;-56
2021/04/29 10:04:22;;;;;;;1.13;0.60;;;24.40;35.70;;;;;;5044336;28;20037;-55
2021/04/29 10:06:48;;;;;;;0.80;0.60;;;24.40;35.70;;;;;;5059322;28;20028;-60
2021/04/29 10:09:14;;;;;;;1.35;0.80;;;24.40;35.70;;;;;;5063118;28;20035;-59
2021/04/29 10:11:43;;;;;;;1.25;0.70;;;24.40;35.60;;;;;;5053237;28;20054;-56
2021/04/29 10:14:10;;;;;;;1.45;0.70;;;24.40;35.60;;;;;;5066040;28;20028;-55
2021/04/29 10:16:38;;;;;;;1.50;0.80;;;24.40;35.70;;;;;;5064803;28;20032;-57
2021/04/29 10:19:03;;;;;;;1.20;0.80;;;24.40;35.60;;;;;;5063176;28;20096;-55
2021/04/29 10:21:29;;;;;;;1.02;0.70;;;24.40;35.70;;;;;;5065679;28;20473;-51
2021/04/29 10:23:55;;;;;;;1.52;0.70;;;24.40;35.70;;;;;;5068964;28;20025;-55
2021/04/29 10:26:29;;;;;;;1.42;0.75;;;24.40;35.70;;;;;;5064438;28;20108;-58
2021/04/29 10:29:06;;;;;;;1.23;0.80;;;24.40;35.60;;;;;;5048140;28;20066;-51
2021/04/29 10:31:33;;;;;;;1.88;0.70;;;24.40;35.70;;;;;;5060794;28;20111;-51
2021/04/29 10:34:02;;;;;;;1.33;0.80;;;24.40;35.70;;;;;;5052141;28;20538;-51
2021/04/29 10:36:53;;;;;;;0.80;0.68;;;24.40;35.70;;;;;;5053674;28;20111;-53
2021/04/29 10:39:21;;;;;;;0.82;0.70;;;24.40;35.60;;;;;;5059305;28;20090;-54
2021/04/29 10:42:01;;;;;;;1.40;0.80;;;24.40;35.60;;;;;;5065842;28;20111;-51
2021/04/29 10:44:27;;;;;;;0.70;0.70;;;24.40;35.60;;;;;;5063869;28;20090;-53
2021/04/29 10:47:02;;;;;;;1.20;0.70;;;24.40;35.60;;;;;;5053491;28;20836;-58
2021/04/29 10:49:32;;;;;;;1.40;0.70;;;24.40;35.60;;;;;;5065064;28;20040;-54
2021/04/29 10:52:01;;;;;;;0.95;0.65;;;24.40;35.60;;;;;;5058776;28;20539;-52
2021/04/29 10:54:27;;;;;;;1.05;0.65;;;24.40;35.60;;;;;;5057356;28;20078;-56
2021/04/29 10:57:04;;;;;;;0.82;0.60;;;24.40;35.60;;;;;;5055170;28;20329;-57
2021/04/29 10:59:48;;;;;;;2.88;0.80;;;24.40;35.60;;;;;;5057432;28;20041;-54
2021/04/29 11:02:24;;;;;;;1.08;0.77;;;24.40;35.60;;;;;;5077589;28;20036;-53
2021/04/29 11:04:52;;;;;;;1.55;0.70;;;24.40;35.60;;;;;;5082308;28;20444;-52
2021/04/29 11:07:19;;;;;;;0.60;0.50;;;24.40;35.50;;;;;;5085172;28;20028;-54
2021/04/29 11:10:00;;;;;;;1.20;0.60;;;24.40;35.50;;;;;;5082012;28;20408;-51
2021/04/29 11:12:43;;;;;;;0.77;0.63;;;24.40;35.50;;;;;;5079365;28;20101;-56
2021/04/29 11:15:31;;;;;;;1.20;0.77;;;24.40;35.60;;;;;;5069327;28;20039;-52
2021/04/29 11:18:05;;;;;;;0.90;0.70;;;24.40;35.60;;;;;;5075145;28;20408;-53
2021/04/29 11:20:56;;;;;;;0.98;0.73;;;24.50;35.60;;;;;;5084742;28;20089;-53
2021/04/29 11:23:26;;;;;;;1.00;0.70;;;24.50;35.60;;;;;;5074916;28;20044;-51
2021/04/29 11:26:07;;;;;;;0.85;0.65;;;24.50;35.50;;;;;;5079677;28;20028;-59
2021/04/29 11:28:33;;;;;;;2.20;0.85;;;24.50;35.60;;;;;;5082354;28;20111;-57
2021/04/29 11:30:59;;;;;;;1.48;0.75;;;24.50;35.60;;;;;;5074719;28;20056;-51
2021/04/29 11:33:35;;;;;;;1.60;0.98;;;24.50;35.60;;;;;;5048576;28;20044;-56
2021/04/29 11:36:19;;;;;;;1.23;0.70;;;24.50;35.60;;;;;;5071009;28;20036;-53
2021/04/29 11:39:06;;;;;;;3.45;0.80;;;24.50;35.60;;;;;;5063084;28;20028;-57
2021/04/29 11:41:32;;;;;;;1.35;1.02;;;24.50;35.60;;;;;;5066667;28;20028;-57
2021/04/29 11:44:01;;;;;;;2.10;0.80;;;24.60;35.50;;;;;;5065385;28;20048;-59
2021/04/29 11:46:30;;;;;;;1.58;0.77;;;24.50;35.50;;;;;;5067498;28;20051;-57
2021/04/29 11:49:02;;;;;;;2.22;0.80;;;24.60;35.60;;;;;;5067785;28;20082;-59
2021/04/29 11:51:30;;;;;;;1.15;0.77;;;24.60;35.50;;;;;;5062712;28;20138;-57
2021/04/29 11:54:07;;;;;;;0.95;0.70;;;24.60;35.50;;;;;;5071809;28;20032;-59
2021/04/29 11:56:36;;;;;;;0.82;0.65;;;24.60;35.40;;;;;;5070289;28;20054;-57
2021/04/29 11:59:04;;;;;;;2.33;0.80;;;24.60;35.50;;;;;;5067092;28;20491;-60
2021/04/29 12:01:29;;;;;;;1.55;0.77;;;24.60;35.60;;;;;;5055344;28;20065;-56
2021/04/29 12:03:55;;;;;;;1.38;0.82;;;24.60;35.60;;;;;;5049890;28;20056;-58
2021/04/29 12:06:22;;;;;;;1.63;0.90;;;24.60;35.50;;;;;;5050975;28;20110;-56
2021/04/29 12:08:48;;;;;;;2.53;0.90;;;24.60;35.50;;;;;;5046747;28;20020;-58
2021/04/29 12:11:14;;;;;;;1.50;0.90;;;24.60;35.40;;;;;;5041882;28;21619;-55
2021/04/29 12:13:51;;;;;;;0.70;0.70;;;24.60;35.50;;;;;;5041791;28;20752;-54
2021/04/29 12:16:29;;;;;;;1.38;0.77;;;24.60;35.40;;;;;;5047974;28;20040;-55
2021/04/29 12:18:56;;;;;;;1.30;0.80;;;24.70;35.50;;;;;;5045837;28;20056;-59
2021/04/29 12:21:24;;;;;;;1.95;1.00;;;24.70;35.50;;;;;;5044425;28;20045;-55
2021/04/29 12:23:57;;;;;;;2.35;0.80;;;24.70;35.40;;;;;;5037582;28;20072;-59
2021/04/29 12:26:49;;;;;;;1.70;0.80;;;24.70;35.50;;;;;;5046501;28;20452;-57
2021/04/29 12:29:19;;;;;;;0.85;0.70;;;24.70;35.50;;;;;;5034569;28;20041;-57
2021/04/29 12:31:57;;;;;;;1.25;0.70;;;24.70;35.30;;;;;;5056031;28;20123;-51
2021/04/29 12:34:23;;;;;;;1.90;1.02;;;24.70;35.30;;;;;;5063367;28;20121;-58
2021/04/29 12:36:54;;;;;;;1.38;0.90;;;24.80;35.40;;;;;;5040275;28;20197;-56
2021/04/29 12:39:21;;;;;;;1.85;0.90;;;24.70;35.30;;;;;;5061635;28;20056;-58
2021/04/29 12:41:57;;;;;;;1.20;0.80;;;24.80;35.40;;;;;;5065245;28;20208;-57
2021/04/29 12:44:44;;;;;;;1.88;0.70;;;24.80;35.40;;;;;;5067250;28;20039;-56
2021/04/29 12:47:12;;;;;;;0.70;0.70;;;24.80;35.60;;;;;;5083465;28;20089;-58
2021/04/29 12:49:38;;;;;;;1.52;0.88;;;24.80;35.60;;;;;;5084609;28;20028;-57
2021/04/29 12:52:10;;;;;;;1.45;0.70;;;24.80;35.50;;;;;;5083163;28;20070;-56